createdAt,value
2023-01-02T00:02:26.405Z,994.85
2023-01-02T00:07:30.498Z,995.11
2023-01-02T00:12:34.692Z,995.23
2023-01-02T00:17:38.826Z,995.25
2023-01-02T00:22:42.993Z,995.07
2023-01-02T00:27:47.150Z,994.92
2023-01-02T00:32:51.312Z,994.80
2023-01-02T00:37:55.499Z,994.51
2023-01-02T00:42:59.618Z,994.25
2023-01-02T00:48:03.789Z,994.00
2023-01-02T00:53:07.947Z,993.67
2023-01-02T00:58:12.135Z,993.64
2023-01-02T01:03:16.291Z,993.41
2023-01-02T01:08:20.435Z,992.81
2023-01-02T01:13:24.594Z,992.34
2023-01-02T01:18:28.747Z,992.10
2023-01-02T01:23:31.037Z,991.90
2023-01-02T01:28:35.229Z,991.72
2023-01-02T01:33:39.330Z,991.57
2023-01-02T01:38:43.486Z,991.45
2023-01-02T01:43:47.693Z,991.55
2023-01-02T01:48:51.818Z,991.74
2023-01-02T01:53:55.958Z,991.93
2023-01-02T01:59:00.123Z,992.10
2023-01-02T02:04:04.332Z,992.41
2023-01-02T02:09:08.465Z,992.60
2023-01-02T02:14:12.620Z,993.07
2023-01-02T02:19:16.798Z,992.94
2023-01-02T02:24:20.974Z,992.76
2023-01-02T02:29:25.140Z,992.70
2023-01-02T02:34:29.285Z,992.98
2023-01-02T02:39:33.458Z,992.84
2023-01-02T02:44:37.625Z,992.98
2023-01-02T02:49:41.748Z,993.13
2023-01-02T02:54:45.892Z,993.16
2023-01-02T02:59:50.094Z,993.12
2023-01-02T03:04:54.212Z,993.15
2023-01-02T03:09:56.528Z,993.07
2023-01-02T03:15:00.694Z,992.76
2023-01-02T03:20:02.933Z,992.71
2023-01-02T03:25:07.073Z,992.63
2023-01-02T03:30:09.357Z,992.70
2023-01-02T03:35:13.567Z,992.50
2023-01-02T03:40:15.823Z,992.69
2023-01-02T03:45:19.947Z,992.22
2023-01-02T03:50:22.195Z,992.14
2023-01-02T03:55:26.380Z,991.76
2023-01-02T04:00:30.526Z,991.43
2023-01-02T04:05:34.710Z,991.64
2023-01-02T04:10:38.890Z,991.69
2023-01-02T04:15:43.082Z,991.88
2023-01-02T04:20:47.179Z,991.86
2023-01-02T04:25:51.322Z,991.87
2023-01-02T04:30:55.585Z,991.88
2023-01-02T04:35:59.668Z,991.98
2023-01-02T04:41:03.814Z,992.11
2023-01-02T04:46:08.046Z,992.14
2023-01-02T04:51:12.155Z,992.28
2023-01-02T04:56:16.295Z,992.63
2023-01-02T05:01:20.615Z,992.85
2023-01-02T05:06:24.653Z,993.05
2023-01-02T05:11:28.808Z,993.21
2023-01-02T05:16:32.954Z,993.52
2023-01-02T05:21:37.125Z,993.72
2023-01-02T05:26:41.279Z,993.98
2023-01-02T05:31:45.463Z,993.98
2023-01-02T05:36:47.709Z,993.92
2023-01-02T05:41:51.873Z,993.97
2023-01-02T05:46:56.065Z,993.76
2023-01-02T05:52:00.186Z,993.31
2023-01-02T05:57:04.360Z,993.15
2023-01-02T06:02:08.721Z,993.15
2023-01-02T06:07:12.696Z,993.33
2023-01-02T06:12:16.865Z,993.43
2023-01-02T06:17:20.992Z,993.47
2023-01-02T06:22:25.167Z,993.56
2023-01-02T06:27:29.282Z,993.77
2023-01-02T06:32:33.626Z,993.76
2023-01-02T06:37:37.648Z,993.92
2023-01-02T06:42:41.815Z,994.08
2023-01-02T06:47:45.965Z,994.18
2023-01-02T06:52:50.120Z,994.40
2023-01-02T06:57:54.317Z,994.28
2023-01-02T07:02:58.424Z,994.24
2023-01-02T07:08:02.617Z,994.10
2023-01-02T07:13:06.752Z,994.04
2023-01-02T07:18:10.900Z,993.83
2023-01-02T07:23:13.190Z,993.80
2023-01-02T07:28:17.361Z,993.83
2023-01-02T07:33:21.500Z,993.80
2023-01-02T07:38:25.661Z,993.79
2023-01-02T07:43:29.849Z,993.41
2023-01-02T07:48:33.969Z,993.18
2023-01-02T07:53:38.255Z,992.84
2023-01-02T07:58:42.349Z,992.54
2023-01-02T08:03:46.465Z,992.51
2023-01-02T08:08:50.635Z,992.30
2023-01-02T08:13:54.776Z,992.26
2023-01-02T08:18:58.972Z,992.18
2023-01-02T08:24:03.109Z,992.12
2023-01-02T08:29:07.302Z,992.06
2023-01-02T08:34:11.460Z,991.93
2023-01-02T08:39:15.597Z,991.77
2023-01-02T08:44:19.839Z,991.81
2023-01-02T08:49:23.945Z,991.70
2023-01-02T08:54:28.091Z,991.50
2023-01-02T08:59:32.224Z,991.44
2023-01-02T09:04:36.408Z,991.29
2023-01-02T09:09:38.692Z,991.41
2023-01-02T09:14:42.829Z,991.50
2023-01-02T09:19:45.140Z,991.61
2023-01-02T09:24:49.251Z,992.07
2023-01-02T09:29:53.453Z,992.13
2023-01-02T09:34:55.701Z,992.06
2023-01-02T09:39:59.854Z,992.15
2023-01-02T09:45:08.496Z,992.18
2023-01-02T09:50:08.235Z,992.07
2023-01-02T09:55:12.351Z,992.17
2023-01-02T10:00:16.599Z,992.40
2023-01-02T10:05:20.674Z,992.36
2023-01-02T10:10:24.806Z,992.59
2023-01-02T10:15:27.079Z,992.83
2023-01-02T10:20:31.244Z,993.07
2023-01-02T10:25:35.403Z,993.25
2023-01-02T10:30:39.549Z,993.40
2023-01-02T10:35:43.754Z,993.50
2023-01-02T10:40:47.902Z,993.55
2023-01-02T10:45:52.071Z,993.64
2023-01-02T10:50:56.212Z,993.62
2023-01-02T10:56:00.444Z,993.62
2023-01-02T11:01:04.650Z,993.61
2023-01-02T11:06:26.233Z,993.87
2023-01-02T11:11:12.846Z,993.94
2023-01-02T11:16:17.064Z,993.86
2023-01-02T11:21:19.298Z,993.92
2023-01-02T11:26:23.458Z,993.79
2023-01-02T11:31:27.625Z,993.88
2023-01-02T11:36:29.909Z,993.89
2023-01-02T11:41:34.055Z,994.23
2023-01-02T11:51:42.423Z,994.55
2023-01-02T11:56:46.551Z,994.58
2023-01-02T12:01:50.804Z,994.61
2023-01-02T12:06:54.847Z,994.73
2023-01-02T12:11:59.066Z,994.82
2023-01-02T12:17:03.307Z,995.05
2023-01-02T12:22:07.545Z,995.28
2023-01-02T12:27:11.492Z,995.43
2023-01-02T12:32:15.734Z,995.57
2023-01-02T12:37:19.846Z,995.84
2023-01-02T12:42:23.989Z,995.95
2023-01-02T12:47:28.137Z,996.14
2023-01-02T12:52:32.338Z,996.30
2023-01-02T12:57:36.485Z,996.34
2023-01-02T13:02:40.777Z,996.44
2023-01-02T13:07:44.795Z,996.44
2023-01-02T13:12:48.952Z,996.45
2023-01-02T13:17:53.130Z,996.49
2023-01-02T13:22:57.282Z,996.57
2023-01-02T13:27:59.535Z,996.70
2023-01-02T13:33:03.713Z,996.81
2023-01-02T13:38:06.007Z,996.67
2023-01-02T13:43:10.211Z,996.84
2023-01-02T13:48:14.285Z,996.93
2023-01-02T13:53:18.478Z,996.97
2023-01-02T13:58:22.619Z,997.19
2023-01-02T14:03:26.792Z,997.32
2023-01-02T14:08:30.938Z,997.27
2023-01-02T14:13:35.085Z,997.18
2023-01-02T14:18:45.873Z,997.15
2023-01-02T14:24:17.331Z,997.49
2023-01-02T14:28:47.687Z,997.52
2023-01-02T14:33:51.743Z,997.60
2023-01-02T14:38:55.903Z,997.53
2023-01-02T14:44:00.117Z,997.47
2023-01-02T14:49:25.606Z,997.40
2023-01-02T14:54:08.409Z,997.31
2023-01-02T14:59:12.564Z,997.14
2023-01-02T15:04:16.716Z,997.02
2023-01-02T15:09:20.893Z,996.85
2023-01-02T15:14:25.002Z,996.78
2023-01-02T15:19:29.231Z,996.53
2023-01-02T15:24:31.448Z,996.44
2023-01-02T15:29:35.720Z,996.39
2023-01-02T15:34:37.901Z,996.35
2023-01-02T15:39:42.079Z,996.24
2023-01-02T15:44:46.225Z,996.14
2023-01-02T15:49:50.405Z,996.16
2023-01-02T15:54:54.534Z,996.20
2023-01-02T15:59:58.737Z,996.39
2023-01-02T16:05:02.872Z,996.48
2023-01-02T16:10:07.013Z,996.47
2023-01-02T16:15:11.218Z,996.62
2023-01-02T16:20:15.340Z,996.67
2023-01-02T16:25:19.617Z,996.76
2023-01-02T16:30:23.685Z,996.88
2023-01-02T16:35:27.861Z,996.91
2023-01-02T16:40:58.809Z,997.02
2023-01-02T16:45:36.229Z,997.11
2023-01-02T16:50:40.320Z,997.16
2023-01-02T16:55:44.483Z,997.33
2023-01-02T17:00:48.720Z,997.30
2023-01-02T17:06:01.445Z,997.54
2023-01-02T17:10:56.965Z,997.78
2023-01-02T17:16:01.232Z,998.07
2023-01-02T17:21:03.443Z,998.09
2023-01-02T17:26:07.616Z,998.27
2023-01-02T17:31:09.934Z,998.29
2023-01-02T17:36:14.033Z,998.46
2023-01-02T17:41:18.175Z,998.54
2023-01-02T17:46:48.575Z,998.74
2023-01-02T17:51:26.523Z,999.08
2023-01-02T17:56:30.721Z,999.32
2023-01-02T18:01:34.936Z,999.68
2023-01-02T18:06:39.143Z,999.89
2023-01-02T18:11:43.113Z,1000.09
2023-01-02T18:16:47.333Z,1000.34
2023-01-02T18:21:51.477Z,1000.40
2023-01-02T18:26:55.636Z,1000.44
2023-01-02T18:31:59.793Z,1000.46
2023-01-02T18:37:03.966Z,1000.43
2023-01-02T18:42:08.095Z,1000.46
2023-01-02T18:47:12.289Z,1000.46
2023-01-02T18:52:16.439Z,1000.58
2023-01-02T18:57:20.592Z,1000.59
2023-01-02T19:02:24.973Z,1000.54
2023-01-02T19:07:28.916Z,1000.47
2023-01-02T19:12:33.143Z,1000.51
2023-01-02T19:17:35.403Z,1000.58
2023-01-02T19:22:39.521Z,1000.53
2023-01-02T19:27:41.799Z,1000.45
2023-01-02T19:32:45.987Z,1000.54
2023-01-02T19:37:50.154Z,1000.58
2023-01-02T19:42:54.328Z,1000.63
2023-01-02T19:47:58.443Z,1000.78
2023-01-02T19:53:02.620Z,1000.93
2023-01-02T19:58:06.791Z,1001.00
2023-01-02T20:03:10.979Z,1001.13
2023-01-02T20:08:15.098Z,1001.21
2023-01-02T20:13:19.238Z,1001.26
2023-01-02T20:18:23.527Z,1001.36
2023-01-02T20:23:27.589Z,1001.44
2023-01-02T20:28:31.759Z,1001.55
2023-01-02T20:33:35.928Z,1001.64
2023-01-02T20:38:40.042Z,1001.64
2023-01-02T20:43:44.222Z,1001.66
2023-01-02T20:48:48.409Z,1001.70
2023-01-02T20:53:52.566Z,1001.80
2023-01-02T20:58:56.728Z,1001.81
2023-01-02T21:04:00.961Z,1001.89
2023-01-02T21:09:05.013Z,1001.86
2023-01-02T21:14:07.302Z,1002.02
2023-01-02T21:19:11.452Z,1002.03
2023-01-02T21:24:13.762Z,1002.15
2023-01-02T21:29:17.904Z,1002.40
2023-01-02T21:34:22.081Z,1002.53
2023-01-02T21:39:26.250Z,1002.63
2023-01-02T21:44:30.439Z,1002.72
2023-01-02T21:49:34.638Z,1002.90
2023-01-02T21:54:38.734Z,1003.00
2023-01-02T21:59:42.873Z,1003.02
2023-01-02T22:04:47.054Z,1003.17
2023-01-02T22:09:51.211Z,1003.12
2023-01-02T22:14:55.348Z,1003.17
2023-01-02T22:19:59.511Z,1003.28
2023-01-02T22:25:03.679Z,1003.43
2023-01-02T22:30:34.503Z,1003.49
2023-01-02T22:35:12.029Z,1003.57
2023-01-02T22:40:16.196Z,1003.54
2023-01-02T22:45:20.352Z,1003.52
2023-01-02T22:50:24.510Z,1003.62
2023-01-02T22:55:28.668Z,1003.53
2023-01-02T23:00:32.818Z,1003.67
2023-01-02T23:05:36.996Z,1003.77
2023-01-02T23:10:39.281Z,1003.79
2023-01-02T23:15:43.432Z,1003.83
2023-01-02T23:20:45.729Z,1003.91
2023-01-02T23:25:49.888Z,1004.00
2023-01-02T23:30:54.169Z,1004.01
2023-01-02T23:35:58.160Z,1003.95
2023-01-02T23:41:02.381Z,1003.84
2023-01-02T23:46:06.598Z,1003.78
2023-01-02T23:51:10.668Z,1003.71
2023-01-02T23:56:14.805Z,1003.74
